createdAt,value
2022-09-15T00:00:47.039Z,1.30
2022-09-15T00:01:46.015Z,0.60
2022-09-15T00:02:46.409Z,0.90
2022-09-15T00:03:46.443Z,0.80
2022-09-15T00:04:46.306Z,0.90
2022-09-15T00:05:46.443Z,0.80
2022-09-15T00:06:46.503Z,0.80
2022-09-15T00:07:46.429Z,0.70
2022-09-15T00:08:46.382Z,1.10
2022-09-15T00:09:45.562Z,0.80
2022-09-15T00:10:46.443Z,0.80
2022-09-15T00:11:47.213Z,1.10
2022-09-15T00:12:46.334Z,0.70
2022-09-15T00:13:46.182Z,0.80
2022-09-15T00:14:46.984Z,0.90
2022-09-15T00:15:46.282Z,0.90
2022-09-15T00:16:47.055Z,1.00
2022-09-15T00:17:46.272Z,1.00
2022-09-15T00:18:46.293Z,1.00
2022-09-15T00:19:46.882Z,1.20
2022-09-15T00:20:47.313Z,0.90
2022-09-15T00:21:46.303Z,1.20
2022-09-15T00:22:46.333Z,1.00
2022-09-15T00:23:46.162Z,0.90
2022-09-15T00:24:45.422Z,0.70
2022-09-15T00:25:46.176Z,0.90
2022-09-15T00:26:46.092Z,0.60
2022-09-15T00:27:46.193Z,1.20
2022-09-15T00:28:45.383Z,0.90
2022-09-15T00:29:46.353Z,1.30
2022-09-15T00:30:46.075Z,0.70
2022-09-15T00:31:45.393Z,0.70
2022-09-15T00:32:46.004Z,1.10
2022-09-15T00:33:46.231Z,0.90
2022-09-15T00:34:46.054Z,0.80
2022-09-15T00:35:46.082Z,0.60
2022-09-15T00:36:46.104Z,1.50
2022-09-15T00:37:46.083Z,1.40
2022-09-15T00:38:45.971Z,0.80
2022-09-15T00:39:46.120Z,1.10
2022-09-15T00:40:46.085Z,0.70
2022-09-15T00:41:45.872Z,0.90
2022-09-15T00:42:46.013Z,0.80
2022-09-15T00:43:46.622Z,0.80
2022-09-15T00:44:45.992Z,0.80
2022-09-15T00:45:46.767Z,1.00
2022-09-15T00:46:58.685Z,0.80
2022-09-15T00:47:46.012Z,0.90
2022-09-15T00:48:46.016Z,1.00
2022-09-15T00:49:45.872Z,1.40
2022-09-15T00:50:45.143Z,0.80
2022-09-15T00:51:45.925Z,0.80
2022-09-15T00:52:46.002Z,0.90
2022-09-15T00:53:45.843Z,0.90
2022-09-15T00:54:45.923Z,0.80
2022-09-15T00:55:45.112Z,0.70
2022-09-15T00:56:45.932Z,1.40
2022-09-15T00:57:45.893Z,1.20
2022-09-15T00:58:45.762Z,1.30
2022-09-15T00:59:46.653Z,0.90
2022-09-15T01:00:45.910Z,0.60
2022-09-15T01:01:45.979Z,1.00
2022-09-15T01:02:45.797Z,0.90
2022-09-15T01:03:46.034Z,1.20
2022-09-15T01:04:45.682Z,1.40
2022-09-15T01:05:45.854Z,0.80
2022-09-15T01:06:45.673Z,0.80
2022-09-15T01:07:45.766Z,0.90
2022-09-15T01:08:45.063Z,1.10
2022-09-15T01:09:46.462Z,1.10
2022-09-15T01:10:45.683Z,0.80
2022-09-15T01:11:45.552Z,1.60
2022-09-15T01:12:45.652Z,1.20
2022-09-15T01:13:45.563Z,0.80
2022-09-15T01:14:45.737Z,0.60
2022-09-15T01:15:45.532Z,0.70
2022-09-15T01:16:45.794Z,0.80
2022-09-15T01:17:45.903Z,1.00
2022-09-15T01:18:45.842Z,0.70
2022-09-15T01:19:45.523Z,0.90
2022-09-15T01:20:45.673Z,0.90
2022-09-15T01:21:45.556Z,0.70
2022-09-15T01:22:45.622Z,1.20
2022-09-15T01:23:45.523Z,1.00
2022-09-15T01:24:45.715Z,1.00
2022-09-15T01:25:46.433Z,1.00
2022-09-15T01:26:45.483Z,1.00
2022-09-15T01:27:44.773Z,1.00
2022-09-15T01:28:45.353Z,1.30
2022-09-15T01:29:45.613Z,1.00
2022-09-15T01:30:45.423Z,0.80
2022-09-15T01:31:44.733Z,1.10
2022-09-15T01:32:44.716Z,1.00
2022-09-15T01:33:45.654Z,1.00
2022-09-15T01:34:45.494Z,1.60
2022-09-15T01:35:45.606Z,0.90
2022-09-15T01:36:45.364Z,1.10
2022-09-15T01:37:44.653Z,1.40
2022-09-15T01:38:44.805Z,1.60
2022-09-15T01:39:45.915Z,1.20
2022-09-15T01:40:44.882Z,1.10
2022-09-15T01:41:44.593Z,1.40
2022-09-15T01:42:46.013Z,1.20
2022-09-15T01:43:46.243Z,1.40
2022-09-15T01:44:44.757Z,1.10
2022-09-15T01:45:45.298Z,1.20
2022-09-15T01:46:44.564Z,1.30
2022-09-15T01:47:45.952Z,1.30
2022-09-15T01:48:44.900Z,1.00
2022-09-15T01:49:45.223Z,1.00
2022-09-15T01:50:44.564Z,1.10
2022-09-15T01:51:45.242Z,1.30
2022-09-15T01:52:45.282Z,0.90
2022-09-15T01:53:44.515Z,1.20
2022-09-15T01:54:45.333Z,1.30
2022-09-15T01:55:44.534Z,1.60
2022-09-15T01:56:46.223Z,1.50
2022-09-15T01:57:44.903Z,1.20
2022-09-15T01:58:44.442Z,1.20
2022-09-15T01:59:46.032Z,1.60
2022-09-15T02:00:46.088Z,1.40
2022-09-15T02:01:44.430Z,1.20
2022-09-15T02:02:45.952Z,0.90
2022-09-15T02:03:45.952Z,1.10
2022-09-15T02:04:44.382Z,1.50
2022-09-15T02:05:45.333Z,1.10
2022-09-15T02:06:44.404Z,1.10
2022-09-15T02:07:46.262Z,1.20
2022-09-15T02:08:45.172Z,1.10
2022-09-15T02:09:45.223Z,1.60
2022-09-15T02:10:45.104Z,1.10
2022-09-15T02:11:44.372Z,1.30
2022-09-15T02:12:44.318Z,1.20
2022-09-15T02:13:46.014Z,1.50
2022-09-15T02:14:44.768Z,1.20
2022-09-15T02:15:44.272Z,2.00
2022-09-15T02:16:46.123Z,1.10
2022-09-15T02:17:45.413Z,1.40
2022-09-15T02:18:45.135Z,1.50
2022-09-15T02:19:45.013Z,1.60
2022-09-15T02:20:44.222Z,1.00
2022-09-15T02:21:44.883Z,1.10
2022-09-15T02:22:44.304Z,1.50
2022-09-15T02:23:45.666Z,1.70
2022-09-15T02:24:44.572Z,1.20
2022-09-15T02:25:44.163Z,1.70
2022-09-15T02:26:45.484Z,1.60
2022-09-15T02:27:44.483Z,1.30
2022-09-15T02:28:45.862Z,1.60
2022-09-15T02:29:44.114Z,1.40
2022-09-15T02:30:44.102Z,1.70
2022-09-15T02:31:45.805Z,1.00
2022-09-15T02:32:44.063Z,1.00
2022-09-15T02:33:45.522Z,0.80
2022-09-15T02:34:44.482Z,0.80
2022-09-15T02:35:44.843Z,1.30
2022-09-15T02:36:44.735Z,1.80
2022-09-15T02:37:44.855Z,1.60
2022-09-15T02:38:45.165Z,1.30
2022-09-15T02:39:43.993Z,1.10
2022-09-15T02:40:44.845Z,1.00
2022-09-15T02:41:43.982Z,1.70
2022-09-15T02:42:44.702Z,1.90
2022-09-15T02:43:44.786Z,1.20
2022-09-15T02:44:43.962Z,1.30
2022-09-15T02:45:45.625Z,1.30
2022-09-15T02:46:44.762Z,0.70
2022-09-15T02:47:44.693Z,1.10
2022-09-15T02:48:43.954Z,1.70
2022-09-15T02:49:44.763Z,1.50
2022-09-15T02:50:43.892Z,1.10
2022-09-15T02:51:44.623Z,2.10
2022-09-15T02:52:44.732Z,1.60
2022-09-15T02:53:44.703Z,1.80
2022-09-15T02:54:44.703Z,1.40
2022-09-15T02:55:44.603Z,1.30
2022-09-15T02:56:43.834Z,1.30
2022-09-15T02:57:45.544Z,1.10
2022-09-15T02:58:44.382Z,1.10
2022-09-15T02:59:44.792Z,1.20
2022-09-15T03:00:43.863Z,1.10
2022-09-15T03:01:44.747Z,1.10
2022-09-15T03:02:44.424Z,1.10
2022-09-15T03:03:44.602Z,1.60
2022-09-15T03:04:44.523Z,1.20
2022-09-15T03:05:43.751Z,0.90
2022-09-15T03:06:44.452Z,0.90
2022-09-15T03:07:44.553Z,1.00
2022-09-15T03:08:43.726Z,1.00
2022-09-15T03:09:44.715Z,1.10
2022-09-15T03:10:45.133Z,0.90
2022-09-15T03:11:43.663Z,0.90
2022-09-15T03:12:44.422Z,1.50
2022-09-15T03:13:43.662Z,1.00
2022-09-15T03:14:44.531Z,0.90
2022-09-15T03:15:44.441Z,0.80
2022-09-15T03:16:44.546Z,1.10
2022-09-15T03:17:44.634Z,1.10
2022-09-15T03:18:43.592Z,0.80
2022-09-15T03:19:44.352Z,1.00
2022-09-15T03:20:44.413Z,1.00
2022-09-15T03:21:43.583Z,1.30
2022-09-15T03:22:44.463Z,0.70
2022-09-15T03:23:44.294Z,0.90
2022-09-15T03:24:44.463Z,1.10
2022-09-15T03:25:43.540Z,1.10
2022-09-15T03:26:44.333Z,0.90
2022-09-15T03:27:43.503Z,1.00
2022-09-15T03:28:44.432Z,1.30
2022-09-15T03:29:44.325Z,0.70
2022-09-15T03:30:44.103Z,0.70
2022-09-15T03:31:44.374Z,0.70
2022-09-15T03:32:44.151Z,0.90
2022-09-15T03:33:44.382Z,0.80
2022-09-15T03:34:44.104Z,0.70
2022-09-15T03:35:44.403Z,0.90
2022-09-15T03:36:44.112Z,0.70
2022-09-15T03:37:44.314Z,1.10
2022-09-15T03:38:44.318Z,0.90
2022-09-15T03:39:44.422Z,0.60
2022-09-15T03:40:44.133Z,0.70
2022-09-15T03:41:44.325Z,1.20
2022-09-15T03:42:44.163Z,0.80
2022-09-15T03:43:44.333Z,1.30
2022-09-15T03:44:44.092Z,0.80
2022-09-15T03:45:45.074Z,1.20
2022-09-15T03:46:44.052Z,0.80
2022-09-15T03:47:44.034Z,1.30
2022-09-15T03:48:44.104Z,0.80
2022-09-15T03:49:43.952Z,1.10
2022-09-15T03:50:44.212Z,0.80
2022-09-15T03:51:44.032Z,1.00
2022-09-15T03:52:44.021Z,1.00
2022-09-15T03:53:43.252Z,0.70
2022-09-15T03:54:44.044Z,0.90
2022-09-15T03:55:44.113Z,0.80
2022-09-15T03:56:43.263Z,0.80
2022-09-15T03:57:44.534Z,0.70
2022-09-15T03:58:43.512Z,1.00
2022-09-15T03:59:43.183Z,0.70
2022-09-15T04:00:44.499Z,0.80
2022-09-15T04:01:43.505Z,0.80
2022-09-15T04:02:43.133Z,1.30
2022-09-15T04:03:48.856Z,0.70
2022-09-15T04:04:43.765Z,0.70
2022-09-15T04:05:43.131Z,0.70
2022-09-15T04:06:44.812Z,0.90
2022-09-15T04:07:43.602Z,1.30
2022-09-15T04:08:44.393Z,0.80
2022-09-15T04:09:43.082Z,0.70
2022-09-15T04:10:44.484Z,0.60
2022-09-15T04:11:43.812Z,1.20
2022-09-15T04:12:43.532Z,1.10
2022-09-15T04:13:44.586Z,1.00
2022-09-15T04:14:43.524Z,0.90
2022-09-15T04:15:43.023Z,0.50
2022-09-15T04:16:44.880Z,0.90
2022-09-15T04:17:42.982Z,0.80
2022-09-15T04:18:44.572Z,0.70
2022-09-15T04:19:43.693Z,0.80
2022-09-15T04:20:42.944Z,0.70
2022-09-15T04:21:44.503Z,0.90
2022-09-15T04:22:43.753Z,1.00
2022-09-15T04:23:43.583Z,0.80
2022-09-15T04:24:43.753Z,0.80
2022-09-15T04:25:44.403Z,0.70
2022-09-15T04:26:43.732Z,0.70
2022-09-15T04:27:43.664Z,0.80
2022-09-15T04:28:43.728Z,0.80
2022-09-15T04:29:43.604Z,0.80
2022-09-15T04:30:44.252Z,0.60
2022-09-15T04:31:43.756Z,1.00
2022-09-15T04:32:45.422Z,1.00
2022-09-15T04:33:44.374Z,0.70
2022-09-15T04:34:43.652Z,0.90
2022-09-15T04:35:43.905Z,1.10
2022-09-15T04:36:42.885Z,0.70
2022-09-15T04:37:42.844Z,0.90
2022-09-15T04:38:43.882Z,1.00
2022-09-15T04:39:42.763Z,1.00
2022-09-15T04:40:42.744Z,0.60
2022-09-15T04:41:43.598Z,1.00
2022-09-15T04:42:43.453Z,0.70
2022-09-15T04:43:43.944Z,0.80
2022-09-15T04:44:43.473Z,1.20
2022-09-15T04:45:43.492Z,0.80
2022-09-15T04:46:43.650Z,0.70
2022-09-15T04:47:42.674Z,0.90
2022-09-15T04:48:44.047Z,1.00
2022-09-15T04:49:43.072Z,1.20
2022-09-15T04:50:42.679Z,0.80
2022-09-15T04:51:44.115Z,0.50
2022-09-15T04:52:43.502Z,0.90
2022-09-15T04:53:43.982Z,1.10
2022-09-15T04:54:43.534Z,0.90
2022-09-15T04:55:42.592Z,0.70
2022-09-15T04:56:44.072Z,1.00
2022-09-15T04:57:43.013Z,1.00
2022-09-15T04:58:42.613Z,1.30
2022-09-15T04:59:44.023Z,1.10
2022-09-15T05:00:43.580Z,1.20
2022-09-15T05:01:42.574Z,1.10
2022-09-15T05:02:44.295Z,0.90
2022-09-15T05:03:43.043Z,0.90
2022-09-15T05:04:42.502Z,0.60
2022-09-15T05:05:43.275Z,1.10
2022-09-15T05:06:42.482Z,0.90
2022-09-15T05:07:43.993Z,0.90
2022-09-15T05:08:42.975Z,1.00
2022-09-15T05:09:42.442Z,1.40
2022-09-15T05:10:44.455Z,0.70
2022-09-15T05:11:43.583Z,1.10
2022-09-15T05:12:42.443Z,1.00
2022-09-15T05:13:43.964Z,0.80
2022-09-15T05:14:42.880Z,1.10
2022-09-15T05:15:42.394Z,1.10
2022-09-15T05:16:44.053Z,0.70
2022-09-15T05:17:42.962Z,1.00
2022-09-15T05:18:42.403Z,0.90
2022-09-15T05:19:42.933Z,0.80
2022-09-15T05:20:42.324Z,1.20
2022-09-15T05:21:44.032Z,0.70
2022-09-15T05:22:43.272Z,0.70
2022-09-15T05:23:42.362Z,1.10
2022-09-15T05:24:44.184Z,1.50
2022-09-15T05:25:43.419Z,0.90
2022-09-15T05:26:42.285Z,1.00
2022-09-15T05:27:43.093Z,1.20
2022-09-15T05:28:43.593Z,0.70
2022-09-15T05:29:43.073Z,1.20
2022-09-15T05:30:44.411Z,1.00
2022-09-15T05:31:43.036Z,1.00
2022-09-15T05:32:42.994Z,0.80
2022-09-15T05:33:43.072Z,1.10
2022-09-15T05:34:42.302Z,0.90
2022-09-15T05:35:43.013Z,1.20
2022-09-15T05:36:43.804Z,1.00
2022-09-15T05:37:42.154Z,1.00
2022-09-15T05:38:43.622Z,0.90
2022-09-15T05:39:43.063Z,1.50
2022-09-15T05:40:42.134Z,0.70
2022-09-15T05:41:43.613Z,0.90
2022-09-15T05:42:42.867Z,0.70
2022-09-15T05:43:42.081Z,0.70
2022-09-15T05:44:43.494Z,1.30
2022-09-15T05:45:42.364Z,0.90
2022-09-15T05:46:42.094Z,0.60
2022-09-15T05:47:42.752Z,0.80
2022-09-15T05:48:42.043Z,0.80
2022-09-15T05:49:42.758Z,0.80
2022-09-15T05:50:43.804Z,1.00
2022-09-15T05:51:42.022Z,0.50
2022-09-15T05:52:43.994Z,1.00
2022-09-15T05:53:42.633Z,0.80
2022-09-15T05:54:42.873Z,0.60
2022-09-15T05:55:42.663Z,0.60
2022-09-15T05:56:41.973Z,0.60
2022-09-15T05:57:43.743Z,0.90
2022-09-15T05:58:42.573Z,0.60
2022-09-15T05:59:44.193Z,0.70
2022-09-15T06:00:41.922Z,0.90
2022-09-15T06:01:42.065Z,0.60
2022-09-15T06:02:42.775Z,0.60
2022-09-15T06:03:41.881Z,0.90
2022-09-15T06:04:43.474Z,1.50
2022-09-15T06:05:42.822Z,0.90
2022-09-15T06:06:42.562Z,0.80
2022-09-15T06:07:41.862Z,0.90
2022-09-15T06:08:44.427Z,1.20
2022-09-15T06:09:42.834Z,1.00
2022-09-15T06:10:42.686Z,0.50
2022-09-15T06:11:41.808Z,1.10
2022-09-15T06:12:42.472Z,0.70
2022-09-15T06:13:42.582Z,0.60
2022-09-15T06:14:41.773Z,0.80
2022-09-15T06:15:42.696Z,0.90
2022-09-15T06:16:42.494Z,0.60
2022-09-15T06:17:41.743Z,1.00
2022-09-15T06:18:42.532Z,0.70
2022-09-15T06:19:42.354Z,1.00
2022-09-15T06:20:42.552Z,0.90
2022-09-15T06:21:42.474Z,0.80
2022-09-15T06:22:42.533Z,0.60
2022-09-15T06:23:45.046Z,0.80
2022-09-15T06:24:42.452Z,0.50
2022-09-15T06:25:42.412Z,0.80
2022-09-15T06:26:41.682Z,0.50
2022-09-15T06:27:43.584Z,0.60
2022-09-15T06:28:43.472Z,0.90
2022-09-15T06:29:42.363Z,1.10
2022-09-15T06:30:42.513Z,0.60
2022-09-15T06:31:41.666Z,0.60
2022-09-15T06:32:46.176Z,0.80
2022-09-15T06:33:42.733Z,0.50
2022-09-15T06:34:42.304Z,0.60
2022-09-15T06:35:42.406Z,0.60
2022-09-15T06:36:42.323Z,0.70
2022-09-15T06:37:42.363Z,0.60
2022-09-15T06:38:42.195Z,0.50
2022-09-15T06:39:42.363Z,0.80
2022-09-15T06:40:42.264Z,0.80
2022-09-15T06:42:01.252Z,0.70
2022-09-15T06:42:42.253Z,0.80
2022-09-15T06:43:42.905Z,0.80
2022-09-15T06:44:42.233Z,0.70
2022-09-15T06:45:42.328Z,0.80
2022-09-15T06:46:42.427Z,0.70
2022-09-15T06:47:42.306Z,0.40
2022-09-15T06:48:44.311Z,0.70
2022-09-15T06:49:41.414Z,0.50
2022-09-15T06:50:42.285Z,1.00
2022-09-15T06:51:42.095Z,0.90
2022-09-15T06:52:41.435Z,0.90
2022-09-15T06:53:42.155Z,0.50
2022-09-15T06:54:42.375Z,0.70
2022-09-15T06:55:43.066Z,0.60
2022-09-15T06:56:41.325Z,0.60
2022-09-15T06:57:43.575Z,0.50
2022-09-15T06:58:42.645Z,0.60
2022-09-15T06:59:41.994Z,0.60
2022-09-15T07:00:42.113Z,0.60
2022-09-15T07:01:41.300Z,0.60
2022-09-15T07:02:42.140Z,0.50
2022-09-15T07:03:42.218Z,0.50
2022-09-15T07:05:02.254Z,0.60
2022-09-15T07:05:42.587Z,0.50
2022-09-15T07:06:41.853Z,0.50
2022-09-15T07:07:41.237Z,0.70
2022-09-15T07:08:41.934Z,0.80
2022-09-15T07:09:41.909Z,0.50
2022-09-15T07:10:41.885Z,0.50
2022-09-15T07:11:43.025Z,0.50
2022-09-15T07:12:41.226Z,0.50
2022-09-15T07:13:42.045Z,0.50
2022-09-15T07:14:41.187Z,0.50
2022-09-15T07:15:42.005Z,0.90
2022-09-15T07:16:43.351Z,0.80
2022-09-15T07:17:41.955Z,0.50
2022-09-15T07:18:43.497Z,0.50
2022-09-15T07:19:41.985Z,0.90
2022-09-15T07:20:41.964Z,0.50
2022-09-15T07:21:42.064Z,0.40
2022-09-15T07:22:41.986Z,0.60
2022-09-15T07:23:42.391Z,0.60
2022-09-15T07:24:41.055Z,0.90
2022-09-15T07:25:41.767Z,0.70
2022-09-15T07:26:41.025Z,0.70
2022-09-15T07:27:41.906Z,0.70
2022-09-15T07:28:41.907Z,0.60
2022-09-15T07:29:41.806Z,0.80
2022-09-15T07:30:41.824Z,0.60
2022-09-15T07:31:41.002Z,0.40
2022-09-15T07:32:41.936Z,0.60
2022-09-15T07:34:41.819Z,0.80
2022-09-15T07:35:41.998Z,0.60
2022-09-15T07:36:42.529Z,0.80
2022-09-15T07:37:42.069Z,0.60
2022-09-15T07:38:42.179Z,1.00
2022-09-15T07:39:42.049Z,0.50
2022-09-15T07:40:42.099Z,0.50
2022-09-15T07:41:42.118Z,0.50
2022-09-15T07:42:42.099Z,0.70
2022-09-15T07:43:42.042Z,0.50
2022-09-15T07:44:41.910Z,0.60
2022-09-15T07:45:42.081Z,1.00
2022-09-15T07:46:41.948Z,0.70
2022-09-15T07:47:42.038Z,0.50
2022-09-15T07:48:42.033Z,0.70
2022-09-15T07:49:42.128Z,0.60
2022-09-15T07:50:41.838Z,0.70
2022-09-15T07:51:42.108Z,0.60
2022-09-15T07:52:41.279Z,0.70
2022-09-15T07:53:42.060Z,0.60
2022-09-15T07:54:41.999Z,0.60
2022-09-15T07:55:42.110Z,0.50
2022-09-15T07:56:41.839Z,0.70
2022-09-15T07:57:41.899Z,0.50
2022-09-15T07:58:41.909Z,0.70
2022-09-15T07:59:41.929Z,0.70
2022-09-15T08:00:41.785Z,0.60
2022-09-15T08:01:41.795Z,0.50
2022-09-15T08:02:41.999Z,0.50
2022-09-15T08:03:41.934Z,0.70
2022-09-15T08:04:41.960Z,0.60
2022-09-15T08:05:45.436Z,0.60
2022-09-15T08:06:42.098Z,0.50
2022-09-15T08:07:42.060Z,0.70
2022-09-15T08:08:41.879Z,0.50
2022-09-15T08:09:42.159Z,0.40
2022-09-15T08:10:42.018Z,0.60
2022-09-15T08:11:42.345Z,0.70
2022-09-15T08:12:41.828Z,0.90
2022-09-15T08:13:41.750Z,0.70
2022-09-15T08:14:41.158Z,0.90
2022-09-15T08:15:42.060Z,0.70
2022-09-15T08:16:41.619Z,0.70
2022-09-15T08:17:41.769Z,0.60
2022-09-15T08:18:41.638Z,1.00
2022-09-15T08:19:43.399Z,0.70
2022-09-15T08:20:40.890Z,0.60
2022-09-15T08:21:41.419Z,0.60
2022-09-15T08:22:41.539Z,0.50
2022-09-15T08:23:40.858Z,0.60
2022-09-15T08:24:41.670Z,0.60
2022-09-15T08:25:41.885Z,0.90
2022-09-15T08:26:41.501Z,0.70
2022-09-15T08:27:41.599Z,0.70
2022-09-15T08:28:41.672Z,0.50
2022-09-15T08:29:41.818Z,0.90
2022-09-15T08:30:41.659Z,0.70
2022-09-15T08:31:41.450Z,0.90
2022-09-15T08:32:40.739Z,0.60
2022-09-15T08:33:45.437Z,0.70
2022-09-15T08:34:41.538Z,0.60
2022-09-15T08:35:41.359Z,0.50
2022-09-15T08:36:42.279Z,0.50
2022-09-15T08:37:41.758Z,0.50
2022-09-15T08:38:41.551Z,0.90
2022-09-15T08:39:41.380Z,0.60
2022-09-15T08:40:41.679Z,1.10
2022-09-15T08:41:41.483Z,0.50
2022-09-15T08:42:44.842Z,0.50
2022-09-15T08:43:41.654Z,0.70
2022-09-15T08:44:41.638Z,0.90
2022-09-15T08:45:41.409Z,0.40
2022-09-15T08:46:41.318Z,0.40
2022-09-15T08:47:41.388Z,0.60
2022-09-15T08:48:41.179Z,0.70
2022-09-15T08:49:51.550Z,0.60
2022-09-15T08:50:42.559Z,0.60
2022-09-15T08:51:41.038Z,0.50
2022-09-15T08:52:41.239Z,0.40
2022-09-15T08:53:41.374Z,0.80
2022-09-15T08:54:41.408Z,0.90
2022-09-15T08:55:41.340Z,0.90
2022-09-15T08:56:41.295Z,0.70
2022-09-15T08:57:41.379Z,0.40
2022-09-15T08:58:41.206Z,0.80
2022-09-15T08:59:41.456Z,0.60
2022-09-15T09:00:41.223Z,0.60
2022-09-15T09:01:41.406Z,0.70
2022-09-15T09:02:41.323Z,0.60
2022-09-15T09:03:41.118Z,0.60
2022-09-15T09:04:41.260Z,0.50
2022-09-15T09:05:40.418Z,0.60
2022-09-15T09:06:42.389Z,0.60
2022-09-15T09:07:41.079Z,0.50
2022-09-15T09:08:41.275Z,0.40
2022-09-15T09:09:41.149Z,0.70
2022-09-15T09:10:41.139Z,0.80
2022-09-15T09:11:41.119Z,1.00
2022-09-15T09:12:41.187Z,0.60
2022-09-15T09:13:41.048Z,0.50
2022-09-15T09:14:41.178Z,0.80
2022-09-15T09:15:41.125Z,0.80
2022-09-15T09:16:41.129Z,0.40
2022-09-15T09:17:41.122Z,0.60
2022-09-15T09:18:40.968Z,0.80
2022-09-15T09:19:41.638Z,0.50
2022-09-15T09:20:40.979Z,0.60
2022-09-15T09:21:41.122Z,0.80
2022-09-15T09:22:44.221Z,0.60
2022-09-15T09:23:41.029Z,0.60
2022-09-15T09:24:40.948Z,0.60
2022-09-15T09:25:41.057Z,0.50
2022-09-15T09:26:40.889Z,0.60
2022-09-15T09:27:41.030Z,0.50
2022-09-15T09:28:40.238Z,0.50
2022-09-15T09:29:40.979Z,0.60
2022-09-15T09:30:40.927Z,0.60
2022-09-15T09:31:41.069Z,0.50
2022-09-15T09:32:41.058Z,0.70
2022-09-15T09:33:45.198Z,0.60
2022-09-15T09:34:41.030Z,0.60
2022-09-15T09:35:40.749Z,0.60
2022-09-15T09:36:40.999Z,0.60
2022-09-15T09:37:40.809Z,0.70
2022-09-15T09:38:40.858Z,0.50
2022-09-15T09:39:40.799Z,0.60
2022-09-15T09:40:40.859Z,0.50
2022-09-15T09:41:40.799Z,0.60
2022-09-15T09:42:40.868Z,0.60
2022-09-15T09:43:40.810Z,0.50
2022-09-15T09:44:40.832Z,0.40
2022-09-15T09:45:40.799Z,0.30
2022-09-15T09:46:40.157Z,0.70
2022-09-15T09:47:40.960Z,0.60
2022-09-15T09:48:40.818Z,0.40
2022-09-15T09:49:40.829Z,0.70
2022-09-15T09:50:40.640Z,0.50
2022-09-15T09:51:40.839Z,0.50
2022-09-15T09:52:40.689Z,0.90
2022-09-15T09:53:46.499Z,0.60
2022-09-15T09:54:40.648Z,0.60
2022-09-15T09:55:40.842Z,0.40
2022-09-15T09:56:40.698Z,0.40
2022-09-15T09:57:41.003Z,0.30
2022-09-15T09:58:40.648Z,0.70
2022-09-15T09:59:40.682Z,0.90
2022-09-15T10:00:40.538Z,0.60
2022-09-15T10:01:40.757Z,0.40
2022-09-15T10:02:40.570Z,0.80
2022-09-15T10:03:41.438Z,0.60
2022-09-15T10:04:41.286Z,0.40
2022-09-15T10:05:40.502Z,0.40
2022-09-15T10:06:40.709Z,0.60
2022-09-15T10:07:40.359Z,0.40
2022-09-15T10:08:39.758Z,0.40
2022-09-15T10:09:40.420Z,0.60
2022-09-15T10:10:39.748Z,0.60
2022-09-15T10:11:40.568Z,0.60
2022-09-15T10:12:40.678Z,0.60
2022-09-15T10:13:40.419Z,0.60
2022-09-15T10:14:40.578Z,0.60
2022-09-15T10:15:40.579Z,0.80
2022-09-15T10:16:40.530Z,0.80
2022-09-15T10:17:40.530Z,0.70
2022-09-15T10:18:40.678Z,0.80
2022-09-15T10:19:40.419Z,0.40
2022-09-15T10:20:40.248Z,0.50
2022-09-15T10:21:40.570Z,0.60
2022-09-15T10:22:40.278Z,0.60
2022-09-15T10:23:40.398Z,0.80
2022-09-15T10:24:40.299Z,0.80
2022-09-15T10:25:58.157Z,0.70
2022-09-15T10:26:40.248Z,0.40
2022-09-15T10:27:40.350Z,0.40
2022-09-15T10:28:40.449Z,0.40
2022-09-15T10:29:41.209Z,0.40
2022-09-15T10:30:40.368Z,0.50
2022-09-15T10:31:40.546Z,0.50
2022-09-15T10:32:40.300Z,0.50
2022-09-15T10:33:40.348Z,0.70
2022-09-15T10:34:40.358Z,0.40
2022-09-15T10:35:40.069Z,0.70
2022-09-15T10:36:39.478Z,0.50
2022-09-15T10:37:40.418Z,0.40
2022-09-15T10:38:39.509Z,0.50
2022-09-15T10:39:40.188Z,0.40
2022-09-15T10:40:40.209Z,0.60
2022-09-15T10:41:40.078Z,0.40
2022-09-15T10:42:40.299Z,0.40
2022-09-15T10:43:39.398Z,0.30
2022-09-15T10:44:40.870Z,0.50
2022-09-15T10:45:40.312Z,0.30
2022-09-15T10:46:39.600Z,0.60
2022-09-15T10:47:41.289Z,0.50
2022-09-15T10:48:40.129Z,0.40
2022-09-15T10:49:39.348Z,0.40
2022-09-15T10:50:39.959Z,0.40
2022-09-15T10:51:39.318Z,0.40
2022-09-15T10:52:39.979Z,0.30
2022-09-15T10:53:39.319Z,0.50
2022-09-15T10:54:41.049Z,0.30
2022-09-15T10:55:52.322Z,0.30
2022-09-15T10:56:41.069Z,0.80
2022-09-15T10:57:40.148Z,0.30
2022-09-15T10:58:42.310Z,0.40
2022-09-15T10:59:40.058Z,0.40
2022-09-15T11:00:39.984Z,0.40
2022-09-15T11:01:39.282Z,0.50
2022-09-15T11:02:40.841Z,0.50
2022-09-15T11:03:39.798Z,0.40
2022-09-15T11:04:41.131Z,0.60
2022-09-15T11:05:40.058Z,0.30
2022-09-15T11:06:39.929Z,0.50
2022-09-15T11:07:40.159Z,0.40
2022-09-15T11:08:40.579Z,0.40
2022-09-15T11:09:39.728Z,0.80
2022-09-15T11:10:41.228Z,0.40
2022-09-15T11:11:39.939Z,0.30
2022-09-15T11:12:39.969Z,0.40
2022-09-15T11:13:39.088Z,0.40
2022-09-15T11:14:39.898Z,0.50
2022-09-15T11:15:40.088Z,0.30
2022-09-15T11:16:40.013Z,0.30
2022-09-15T11:17:39.874Z,0.30
2022-09-15T11:18:39.828Z,1.00
2022-09-15T11:19:40.107Z,0.30
2022-09-15T11:20:40.218Z,0.30
2022-09-15T11:21:40.119Z,0.50
2022-09-15T11:22:39.018Z,0.50
2022-09-15T11:23:39.978Z,0.70
2022-09-15T11:24:39.688Z,0.20
2022-09-15T11:25:40.127Z,0.40
2022-09-15T11:26:39.618Z,0.40
2022-09-15T11:27:38.968Z,0.40
2022-09-15T11:28:39.649Z,0.50
2022-09-15T11:29:39.728Z,0.60
2022-09-15T11:30:38.928Z,0.40
2022-09-15T11:31:40.593Z,0.30
2022-09-15T11:32:39.399Z,0.40
2022-09-15T11:33:39.788Z,0.60
2022-09-15T11:34:39.688Z,0.40
2022-09-15T11:35:38.878Z,0.40
2022-09-15T11:36:39.658Z,0.30
2022-09-15T11:37:39.438Z,0.50
2022-09-15T11:38:39.639Z,0.40
2022-09-15T11:39:39.488Z,0.40
2022-09-15T11:40:39.819Z,0.40
2022-09-15T11:41:38.998Z,0.40
2022-09-15T11:42:39.739Z,0.30
2022-09-15T11:43:39.449Z,0.40
2022-09-15T11:44:39.708Z,0.40
2022-09-15T11:45:38.768Z,0.30
2022-09-15T11:46:40.483Z,0.30
2022-09-15T11:47:40.643Z,0.30
2022-09-15T11:48:38.739Z,0.40
2022-09-15T11:49:39.550Z,0.50
2022-09-15T11:50:39.508Z,0.40
2022-09-15T11:51:38.718Z,0.30
2022-09-15T11:52:39.398Z,0.40
2022-09-15T11:53:39.537Z,0.40
2022-09-15T11:54:39.398Z,0.50
2022-09-15T11:55:39.678Z,0.30
2022-09-15T11:56:40.389Z,0.60
2022-09-15T11:57:40.099Z,0.50
2022-09-15T11:58:39.324Z,0.30
2022-09-15T11:59:39.421Z,0.30
2022-09-15T12:00:39.288Z,0.40
2022-09-15T12:01:38.646Z,0.40
2022-09-15T12:02:39.675Z,0.50
2022-09-15T12:03:38.590Z,0.40
2022-09-15T12:04:38.588Z,0.50
2022-09-15T12:05:40.571Z,0.40
2022-09-15T12:06:43.268Z,0.30
2022-09-15T12:07:38.539Z,0.30
2022-09-15T12:08:39.870Z,0.40
2022-09-15T12:09:39.314Z,0.50
2022-09-15T12:10:39.898Z,0.30
2022-09-15T12:11:39.240Z,0.30
2022-09-15T12:12:39.259Z,0.50
2022-09-15T12:13:39.519Z,0.40
2022-09-15T12:14:39.431Z,0.30
2022-09-15T12:15:39.133Z,0.50
2022-09-15T12:16:39.329Z,0.40
2022-09-15T12:17:39.079Z,0.60
2022-09-15T12:18:42.744Z,0.40
2022-09-15T12:19:38.429Z,0.40
2022-09-15T12:20:39.969Z,0.30
2022-09-15T12:21:39.139Z,0.30
2022-09-15T12:22:39.208Z,0.50
2022-09-15T12:23:39.128Z,0.20
2022-09-15T12:24:39.041Z,0.50
2022-09-15T12:25:39.191Z,0.40
2022-09-15T12:26:38.979Z,0.40
2022-09-15T12:27:40.359Z,0.50
2022-09-15T12:28:38.920Z,0.50
2022-09-15T12:29:41.935Z,0.90
2022-09-15T12:30:39.088Z,0.30
2022-09-15T12:31:39.227Z,0.50
2022-09-15T12:32:39.699Z,0.30
2022-09-15T12:33:39.628Z,0.30
2022-09-15T12:34:39.629Z,0.40
2022-09-15T12:35:39.538Z,0.40
2022-09-15T12:36:38.608Z,0.70
2022-09-15T12:37:39.629Z,0.20
2022-09-15T12:38:39.038Z,0.40
2022-09-15T12:39:38.858Z,0.40
2022-09-15T12:40:39.175Z,0.30
2022-09-15T12:41:38.809Z,0.60
2022-09-15T12:42:40.168Z,0.50
2022-09-15T12:43:39.229Z,0.30
2022-09-15T12:44:39.009Z,0.40
2022-09-15T12:45:38.948Z,0.30
2022-09-15T12:46:39.006Z,0.50
2022-09-15T12:47:39.549Z,0.40
2022-09-15T12:48:38.208Z,0.40
2022-09-15T12:49:39.139Z,0.40
2022-09-15T12:50:38.899Z,0.50
2022-09-15T12:51:38.839Z,0.40
2022-09-15T12:52:38.878Z,0.50
2022-09-15T12:53:40.854Z,0.40
2022-09-15T12:54:39.360Z,0.60
2022-09-15T12:55:38.849Z,0.70
2022-09-15T12:56:38.759Z,0.40
2022-09-15T12:57:38.959Z,0.50
2022-09-15T12:58:38.728Z,0.60
2022-09-15T12:59:38.788Z,0.30
2022-09-15T13:00:45.548Z,0.40
2022-09-15T13:01:39.468Z,0.40
2022-09-15T13:02:38.727Z,0.80
2022-09-15T13:04:38.699Z,0.50
2022-09-15T13:05:39.579Z,0.40
2022-09-15T13:06:38.729Z,0.60
2022-09-15T13:07:38.708Z,0.30
2022-09-15T13:08:38.828Z,0.40
2022-09-15T13:09:38.805Z,0.40
2022-09-15T13:10:38.638Z,0.40
2022-09-15T13:11:38.000Z,0.50
2022-09-15T13:12:38.679Z,0.60
2022-09-15T13:13:39.209Z,0.30
2022-09-15T13:14:38.979Z,0.30
2022-09-15T13:15:38.834Z,0.50
2022-09-15T13:16:38.998Z,0.30
2022-09-15T13:17:39.618Z,0.40
2022-09-15T13:18:38.949Z,0.30
2022-09-15T13:19:38.819Z,0.30
2022-09-15T13:20:38.959Z,0.50